sensor_id;sensor_type;location;lat;lon;timestamp;P1;durP1;ratioP1;P2;durP2;ratioP2
20589;SDS011;10453;50.810;12.540;2023-10-13T00:02:20;14.82;;;8.95;;
20589;SDS011;10453;50.810;12.540;2023-10-13T00:06:39;12.48;;;8.75;;
20589;SDS011;10453;50.810;12.540;2023-10-13T00:10:59;15.18;;;9.25;;
20589;SDS011;10453;50.810;12.540;2023-10-13T00:15:18;17.98;;;9.20;;
20589;SDS011;10453;50.810;12.540;2023-10-13T00:19:38;11.82;;;8.95;;
20589;SDS011;10453;50.810;12.540;2023-10-13T00:24:02;11.27;;;8.73;;
20589;SDS011;10453;50.810;12.540;2023-10-13T00:28:26;16.40;;;9.77;;
20589;SDS011;10453;50.810;12.540;2023-10-13T00:32:52;12.82;;;9.13;;
20589;SDS011;10453;50.810;12.540;2023-10-13T00:37:12;14.05;;;9.63;;
20589;SDS011;10453;50.810;12.540;2023-10-13T00:41:34;18.85;;;9.73;;
20589;SDS011;10453;50.810;12.540;2023-10-13T00:46:07;14.57;;;8.88;;
20589;SDS011;10453;50.810;12.540;2023-10-13T00:50:25;18.65;;;9.77;;
20589;SDS011;10453;50.810;12.540;2023-10-13T00:54:43;14.45;;;9.73;;
20589;SDS011;10453;50.810;12.540;2023-10-13T00:59:05;17.00;;;9.10;;
20589;SDS011;10453;50.810;12.540;2023-10-13T01:03:26;16.02;;;9.98;;
20589;SDS011;10453;50.810;12.540;2023-10-13T01:07:43;13.90;;;9.90;;
20589;SDS011;10453;50.810;12.540;2023-10-13T01:12:02;15.50;;;9.45;;
20589;SDS011;10453;50.810;12.540;2023-10-13T01:16:20;18.65;;;9.45;;
20589;SDS011;10453;50.810;12.540;2023-10-13T01:20:38;15.88;;;9.10;;
20589;SDS011;10453;50.810;12.540;2023-10-13T01:25:09;19.70;;;9.77;;
20589;SDS011;10453;50.810;12.540;2023-10-13T01:29:30;13.55;;;9.57;;
20589;SDS011;10453;50.810;12.540;2023-10-13T01:33:47;17.15;;;10.43;;
20589;SDS011;10453;50.810;12.540;2023-10-13T01:38:09;15.63;;;10.02;;
20589;SDS011;10453;50.810;12.540;2023-10-13T01:42:26;16.35;;;10.40;;
20589;SDS011;10453;50.810;12.540;2023-10-13T01:46:47;17.27;;;10.38;;
20589;SDS011;10453;50.810;12.540;2023-10-13T01:51:04;15.48;;;10.18;;
20589;SDS011;10453;50.810;12.540;2023-10-13T01:55:26;16.90;;;10.88;;
20589;SDS011;10453;50.810;12.540;2023-10-13T02:04:06;16.13;;;10.30;;
20589;SDS011;10453;50.810;12.540;2023-10-13T02:08:25;17.67;;;10.25;;
20589;SDS011;10453;50.810;12.540;2023-10-13T02:12:43;17.25;;;10.40;;
20589;SDS011;10453;50.810;12.540;2023-10-13T02:17:00;12.88;;;9.75;;
20589;SDS011;10453;50.810;12.540;2023-10-13T02:21:32;13.20;;;8.98;;
20589;SDS011;10453;50.810;12.540;2023-10-13T02:25:56;14.73;;;9.93;;
20589;SDS011;10453;50.810;12.540;2023-10-13T02:30:27;12.95;;;8.85;;
20589;SDS011;10453;50.810;12.540;2023-10-13T02:34:44;10.98;;;8.75;;
20589;SDS011;10453;50.810;12.540;2023-10-13T02:39:05;15.13;;;8.90;;
20589;SDS011;10453;50.810;12.540;2023-10-13T02:43:24;14.40;;;9.50;;
20589;SDS011;10453;50.810;12.540;2023-10-13T02:47:45;15.70;;;9.00;;
20589;SDS011;10453;50.810;12.540;2023-10-13T02:52:12;13.23;;;8.50;;
20589;SDS011;10453;50.810;12.540;2023-10-13T02:56:30;12.43;;;9.10;;
20589;SDS011;10453;50.810;12.540;2023-10-13T03:00:47;14.38;;;9.10;;
20589;SDS011;10453;50.810;12.540;2023-10-13T03:05:05;14.10;;;9.43;;
20589;SDS011;10453;50.810;12.540;2023-10-13T03:09:26;13.02;;;9.60;;
20589;SDS011;10453;50.810;12.540;2023-10-13T03:13:44;13.57;;;9.27;;
20589;SDS011;10453;50.810;12.540;2023-10-13T03:18:03;17.83;;;10.00;;
20589;SDS011;10453;50.810;12.540;2023-10-13T03:22:20;16.85;;;9.82;;
20589;SDS011;10453;50.810;12.540;2023-10-13T03:26:47;13.90;;;9.20;;
20589;SDS011;10453;50.810;12.540;2023-10-13T03:31:09;12.68;;;8.95;;
20589;SDS011;10453;50.810;12.540;2023-10-13T03:35:34;16.35;;;9.23;;
20589;SDS011;10453;50.810;12.540;2023-10-13T03:39:57;14.85;;;9.43;;
20589;SDS011;10453;50.810;12.540;2023-10-13T03:44:16;13.57;;;9.45;;
20589;SDS011;10453;50.810;12.540;2023-10-13T03:48:35;16.25;;;10.20;;
20589;SDS011;10453;50.810;12.540;2023-10-13T03:53:12;12.23;;;9.77;;
20589;SDS011;10453;50.810;12.540;2023-10-13T03:57:30;17.02;;;10.02;;
20589;SDS011;10453;50.810;12.540;2023-10-13T04:01:50;15.45;;;10.90;;
20589;SDS011;10453;50.810;12.540;2023-10-13T04:06:19;16.80;;;10.98;;
20589;SDS011;10453;50.810;12.540;2023-10-13T04:10:57;21.90;;;11.20;;
20589;SDS011;10453;50.810;12.540;2023-10-13T04:15:14;17.10;;;10.98;;
20589;SDS011;10453;50.810;12.540;2023-10-13T04:19:35;17.60;;;10.90;;
20589;SDS011;10453;50.810;12.540;2023-10-13T04:24:12;15.60;;;10.93;;
20589;SDS011;10453;50.810;12.540;2023-10-13T04:28:35;16.83;;;11.57;;
20589;SDS011;10453;50.810;12.540;2023-10-13T04:32:54;12.85;;;10.45;;
20589;SDS011;10453;50.810;12.540;2023-10-13T04:37:44;18.97;;;11.37;;
20589;SDS011;10453;50.810;12.540;2023-10-13T04:42:17;16.20;;;11.20;;
20589;SDS011;10453;50.810;12.540;2023-10-13T04:46:55;15.68;;;11.40;;
20589;SDS011;10453;50.810;12.540;2023-10-13T04:51:16;20.30;;;11.32;;
20589;SDS011;10453;50.810;12.540;2023-10-13T04:56:00;16.48;;;11.00;;
20589;SDS011;10453;50.810;12.540;2023-10-13T05:00:21;17.00;;;12.05;;
20589;SDS011;10453;50.810;12.540;2023-10-13T05:04:40;15.93;;;11.07;;
20589;SDS011;10453;50.810;12.540;2023-10-13T05:09:16;14.82;;;11.05;;
20589;SDS011;10453;50.810;12.540;2023-10-13T05:13:52;17.85;;;12.32;;
20589;SDS011;10453;50.810;12.540;2023-10-13T05:18:29;15.95;;;11.60;;
20589;SDS011;10453;50.810;12.540;2023-10-13T05:23:05;22.25;;;12.30;;
20589;SDS011;10453;50.810;12.540;2023-10-13T05:27:41;19.40;;;11.60;;
20589;SDS011;10453;50.810;12.540;2023-10-13T05:32:19;17.75;;;11.48;;
20589;SDS011;10453;50.810;12.540;2023-10-13T05:36:55;17.85;;;11.60;;
20589;SDS011;10453;50.810;12.540;2023-10-13T05:41:31;18.30;;;11.32;;
20589;SDS011;10453;50.810;12.540;2023-10-13T05:46:07;16.73;;;10.82;;
20589;SDS011;10453;50.810;12.540;2023-10-13T05:50:52;14.85;;;10.02;;
20589;SDS011;10453;50.810;12.540;2023-10-13T05:55:29;18.95;;;10.75;;
20589;SDS011;10453;50.810;12.540;2023-10-13T06:00:06;19.20;;;10.30;;
20589;SDS011;10453;50.810;12.540;2023-10-13T06:04:43;16.75;;;9.82;;
20589;SDS011;10453;50.810;12.540;2023-10-13T06:09:20;15.52;;;10.00;;
20589;SDS011;10453;50.810;12.540;2023-10-13T06:13:58;14.80;;;9.50;;
20589;SDS011;10453;50.810;12.540;2023-10-13T06:18:35;15.13;;;8.82;;
20589;SDS011;10453;50.810;12.540;2023-10-13T06:23:11;13.32;;;8.45;;
20589;SDS011;10453;50.810;12.540;2023-10-13T06:27:47;15.82;;;8.98;;
20589;SDS011;10453;50.810;12.540;2023-10-13T06:32:23;14.38;;;9.18;;
20589;SDS011;10453;50.810;12.540;2023-10-13T06:36:44;14.93;;;8.30;;
20589;SDS011;10453;50.810;12.540;2023-10-13T06:45:24;16.25;;;8.23;;
20589;SDS011;10453;50.810;12.540;2023-10-13T06:49:45;11.63;;;7.05;;
20589;SDS011;10453;50.810;12.540;2023-10-13T06:54:05;12.82;;;7.22;;
20589;SDS011;10453;50.810;12.540;2023-10-13T06:58:29;11.93;;;6.90;;
20589;SDS011;10453;50.810;12.540;2023-10-13T07:02:46;14.68;;;6.55;;
20589;SDS011;10453;50.810;12.540;2023-10-13T07:07:04;10.93;;;6.95;;
20589;SDS011;10453;50.810;12.540;2023-10-13T07:11:25;14.10;;;6.22;;
20589;SDS011;10453;50.810;12.540;2023-10-13T07:16:00;9.18;;;6.28;;
20589;SDS011;10453;50.810;12.540;2023-10-13T07:20:25;10.60;;;6.90;;
20589;SDS011;10453;50.810;12.540;2023-10-13T07:24:46;11.57;;;6.75;;
20589;SDS011;10453;50.810;12.540;2023-10-13T07:29:07;14.63;;;6.43;;
20589;SDS011;10453;50.810;12.540;2023-10-13T07:33:25;9.90;;;6.57;;
20589;SDS011;10453;50.810;12.540;2023-10-13T07:37:42;10.32;;;6.20;;
20589;SDS011;10453;50.810;12.540;2023-10-13T07:42:01;10.98;;;6.28;;
20589;SDS011;10453;50.810;12.540;2023-10-13T07:46:25;12.48;;;6.38;;
20589;SDS011;10453;50.810;12.540;2023-10-13T07:51:01;12.63;;;6.57;;
20589;SDS011;10453;50.810;12.540;2023-10-13T07:55:21;11.23;;;6.50;;
20589;SDS011;10453;50.810;12.540;2023-10-13T07:59:39;12.80;;;6.80;;
20589;SDS011;10453;50.810;12.540;2023-10-13T08:04:04;12.35;;;6.20;;
20589;SDS011;10453;50.810;12.540;2023-10-13T08:08:39;15.32;;;6.43;;
20589;SDS011;10453;50.810;12.540;2023-10-13T08:12:58;10.77;;;6.20;;
20589;SDS011;10453;50.810;12.540;2023-10-13T08:17:15;11.60;;;5.80;;
20589;SDS011;10453;50.810;12.540;2023-10-13T08:21:56;13.20;;;5.85;;
20589;SDS011;10453;50.810;12.540;2023-10-13T08:26:16;9.50;;;5.97;;
20589;SDS011;10453;50.810;12.540;2023-10-13T08:30:52;11.95;;;5.65;;
20589;SDS011;10453;50.810;12.540;2023-10-13T08:35:10;16.23;;;6.10;;
20589;SDS011;10453;50.810;12.540;2023-10-13T08:39:40;12.70;;;6.20;;
20589;SDS011;10453;50.810;12.540;2023-10-13T08:44:36;21.38;;;6.28;;
20589;SDS011;10453;50.810;12.540;2023-10-13T08:49:01;13.65;;;6.50;;
20589;SDS011;10453;50.810;12.540;2023-10-13T08:53:32;14.45;;;6.03;;
20589;SDS011;10453;50.810;12.540;2023-10-13T08:58:01;13.27;;;5.68;;
20589;SDS011;10453;50.810;12.540;2023-10-13T09:02:31;16.92;;;6.10;;
20589;SDS011;10453;50.810;12.540;2023-10-13T09:07:14;14.57;;;6.15;;
20589;SDS011;10453;50.810;12.540;2023-10-13T09:11:42;14.20;;;6.07;;
20589;SDS011;10453;50.810;12.540;2023-10-13T09:16:10;14.40;;;6.40;;
20589;SDS011;10453;50.810;12.540;2023-10-13T09:20:49;14.30;;;6.13;;
20589;SDS011;10453;50.810;12.540;2023-10-13T09:25:37;17.77;;;7.07;;
20589;SDS011;10453;50.810;12.540;2023-10-13T09:30:04;11.77;;;5.88;;
20589;SDS011;10453;50.810;12.540;2023-10-13T09:34:39;15.02;;;6.05;;
20589;SDS011;10453;50.810;12.540;2023-10-13T09:39:01;16.60;;;6.00;;
20589;SDS011;10453;50.810;12.540;2023-10-13T09:43:29;12.77;;;6.03;;
20589;SDS011;10453;50.810;12.540;2023-10-13T09:52:09;9.85;;;5.68;;
20589;SDS011;10453;50.810;12.540;2023-10-13T09:56:58;12.18;;;6.20;;
20589;SDS011;10453;50.810;12.540;2023-10-13T10:01:22;14.55;;;5.82;;
20589;SDS011;10453;50.810;12.540;2023-10-13T10:05:55;14.77;;;5.85;;
20589;SDS011;10453;50.810;12.540;2023-10-13T10:10:21;14.15;;;6.13;;
20589;SDS011;10453;50.810;12.540;2023-10-13T10:19:18;12.13;;;5.47;;
20589;SDS011;10453;50.810;12.540;2023-10-13T10:23:36;16.58;;;6.18;;
20589;SDS011;10453;50.810;12.540;2023-10-13T10:27:57;13.93;;;5.47;;
20589;SDS011;10453;50.810;12.540;2023-10-13T10:32:18;15.60;;;5.75;;
20589;SDS011;10453;50.810;12.540;2023-10-13T10:36:36;16.33;;;5.75;;
20589;SDS011;10453;50.810;12.540;2023-10-13T10:40:54;19.35;;;6.40;;
20589;SDS011;10453;50.810;12.540;2023-10-13T10:45:15;13.07;;;6.00;;
20589;SDS011;10453;50.810;12.540;2023-10-13T10:49:39;11.70;;;5.50;;
20589;SDS011;10453;50.810;12.540;2023-10-13T10:53:58;13.02;;;5.55;;
20589;SDS011;10453;50.810;12.540;2023-10-13T10:58:32;21.42;;;6.13;;
20589;SDS011;10453;50.810;12.540;2023-10-13T11:03:00;15.05;;;5.70;;
20589;SDS011;10453;50.810;12.540;2023-10-13T11:07:24;17.63;;;10.77;;
20589;SDS011;10453;50.810;12.540;2023-10-13T11:11:45;19.25;;;15.00;;
20589;SDS011;10453;50.810;12.540;2023-10-13T11:16:03;15.63;;;6.35;;
20589;SDS011;10453;50.810;12.540;2023-10-13T11:20:24;14.05;;;5.65;;
20589;SDS011;10453;50.810;12.540;2023-10-13T11:24:51;13.70;;;5.03;;
20589;SDS011;10453;50.810;12.540;2023-10-13T11:29:11;14.00;;;5.45;;
20589;SDS011;10453;50.810;12.540;2023-10-13T11:33:29;14.68;;;8.02;;
20589;SDS011;10453;50.810;12.540;2023-10-13T11:37:46;13.98;;;4.97;;
20589;SDS011;10453;50.810;12.540;2023-10-13T11:42:13;17.38;;;5.70;;
20589;SDS011;10453;50.810;12.540;2023-10-13T11:46:34;14.02;;;5.63;;
20589;SDS011;10453;50.810;12.540;2023-10-13T11:50:56;16.35;;;6.10;;
20589;SDS011;10453;50.810;12.540;2023-10-13T11:55:13;15.63;;;5.28;;
20589;SDS011;10453;50.810;12.540;2023-10-13T11:59:31;17.35;;;5.68;;
20589;SDS011;10453;50.810;12.540;2023-10-13T12:03:49;12.60;;;5.53;;
20589;SDS011;10453;50.810;12.540;2023-10-13T12:08:25;12.70;;;5.57;;
20589;SDS011;10453;50.810;12.540;2023-10-13T12:12:50;14.50;;;5.45;;
20589;SDS011;10453;50.810;12.540;2023-10-13T12:17:11;14.65;;;5.38;;
20589;SDS011;10453;50.810;12.540;2023-10-13T12:21:30;15.20;;;6.40;;
20589;SDS011;10453;50.810;12.540;2023-10-13T12:25:48;13.70;;;5.53;;
20589;SDS011;10453;50.810;12.540;2023-10-13T12:30:14;11.25;;;5.82;;
20589;SDS011;10453;50.810;12.540;2023-10-13T12:34:52;14.55;;;5.90;;
20589;SDS011;10453;50.810;12.540;2023-10-13T12:39:14;13.52;;;6.68;;
20589;SDS011;10453;50.810;12.540;2023-10-13T12:43:50;10.13;;;5.70;;
20589;SDS011;10453;50.810;12.540;2023-10-13T12:48:31;14.32;;;6.00;;
20589;SDS011;10453;50.810;12.540;2023-10-13T12:53:07;16.30;;;6.05;;
20589;SDS011;10453;50.810;12.540;2023-10-13T12:57:30;17.52;;;6.13;;
20589;SDS011;10453;50.810;12.540;2023-10-13T13:01:49;11.65;;;5.75;;
20589;SDS011;10453;50.810;12.540;2023-10-13T13:06:06;12.20;;;5.28;;
20589;SDS011;10453;50.810;12.540;2023-10-13T13:10:24;12.25;;;6.05;;
20589;SDS011;10453;50.810;12.540;2023-10-13T13:14:52;11.30;;;5.40;;
20589;SDS011;10453;50.810;12.540;2023-10-13T13:19:12;12.63;;;5.13;;
20589;SDS011;10453;50.810;12.540;2023-10-13T13:23:31;12.70;;;4.97;;
20589;SDS011;10453;50.810;12.540;2023-10-13T13:27:51;10.18;;;5.15;;
20589;SDS011;10453;50.810;12.540;2023-10-13T13:32:09;12.27;;;4.57;;
20589;SDS011;10453;50.810;12.540;2023-10-13T13:36:42;12.15;;;5.05;;
20589;SDS011;10453;50.810;12.540;2023-10-13T13:41:01;8.88;;;5.07;;
20589;SDS011;10453;50.810;12.540;2023-10-13T13:45:21;14.32;;;5.32;;
20589;SDS011;10453;50.810;12.540;2023-10-13T13:49:42;14.05;;;5.15;;
20589;SDS011;10453;50.810;12.540;2023-10-13T13:54:09;13.38;;;5.47;;
20589;SDS011;10453;50.810;12.540;2023-10-13T13:58:26;10.02;;;5.53;;
20589;SDS011;10453;50.810;12.540;2023-10-13T14:02:44;11.48;;;5.30;;
20589;SDS011;10453;50.810;12.540;2023-10-13T14:07:04;11.07;;;5.30;;
20589;SDS011;10453;50.810;12.540;2023-10-13T14:11:23;11.20;;;5.68;;
20589;SDS011;10453;50.810;12.540;2023-10-13T14:15:56;12.85;;;5.00;;
20589;SDS011;10453;50.810;12.540;2023-10-13T14:20:14;13.98;;;5.05;;
20589;SDS011;10453;50.810;12.540;2023-10-13T14:24:35;7.53;;;4.97;;
20589;SDS011;10453;50.810;12.540;2023-10-13T14:29:00;12.90;;;4.80;;
20589;SDS011;10453;50.810;12.540;2023-10-13T14:33:19;11.48;;;5.32;;
20589;SDS011;10453;50.810;12.540;2023-10-13T14:37:38;11.73;;;4.93;;
20589;SDS011;10453;50.810;12.540;2023-10-13T14:42:00;12.32;;;5.63;;
20589;SDS011;10453;50.810;12.540;2023-10-13T14:46:20;8.63;;;5.22;;
20589;SDS011;10453;50.810;12.540;2023-10-13T14:50:40;9.30;;;4.75;;
20589;SDS011;10453;50.810;12.540;2023-10-13T14:55:00;11.85;;;4.93;;
20589;SDS011;10453;50.810;12.540;2023-10-13T14:59:17;11.27;;;5.03;;
20589;SDS011;10453;50.810;12.540;2023-10-13T15:03:39;7.95;;;5.30;;
20589;SDS011;10453;50.810;12.540;2023-10-13T15:07:56;8.82;;;5.03;;
20589;SDS011;10453;50.810;12.540;2023-10-13T15:12:13;10.93;;;5.15;;
20589;SDS011;10453;50.810;12.540;2023-10-13T15:16:38;9.35;;;4.80;;
20589;SDS011;10453;50.810;12.540;2023-10-13T15:20:55;10.45;;;4.50;;
20589;SDS011;10453;50.810;12.540;2023-10-13T15:25:13;9.05;;;5.30;;
20589;SDS011;10453;50.810;12.540;2023-10-13T15:29:46;13.30;;;4.70;;
20589;SDS011;10453;50.810;12.540;2023-10-13T15:34:13;9.98;;;4.50;;
20589;SDS011;10453;50.810;12.540;2023-10-13T15:38:31;12.35;;;4.95;;
20589;SDS011;10453;50.810;12.540;2023-10-13T15:42:48;10.20;;;4.70;;
20589;SDS011;10453;50.810;12.540;2023-10-13T15:47:06;12.93;;;5.07;;
20589;SDS011;10453;50.810;12.540;2023-10-13T15:51:26;8.73;;;4.70;;
20589;SDS011;10453;50.810;12.540;2023-10-13T15:55:43;8.55;;;4.57;;
20589;SDS011;10453;50.810;12.540;2023-10-13T16:00:03;8.15;;;4.80;;
20589;SDS011;10453;50.810;12.540;2023-10-13T16:04:40;10.05;;;5.18;;
20589;SDS011;10453;50.810;12.540;2023-10-13T16:08:58;12.90;;;5.65;;
20589;SDS011;10453;50.810;12.540;2023-10-13T16:13:16;9.53;;;4.73;;
20589;SDS011;10453;50.810;12.540;2023-10-13T16:17:37;14.77;;;5.15;;
20589;SDS011;10453;50.810;12.540;2023-10-13T16:21:56;9.85;;;4.65;;
20589;SDS011;10453;50.810;12.540;2023-10-13T16:26:14;14.80;;;5.05;;
20589;SDS011;10453;50.810;12.540;2023-10-13T16:30:31;12.30;;;5.30;;
20589;SDS011;10453;50.810;12.540;2023-10-13T16:34:49;9.60;;;4.88;;
20589;SDS011;10453;50.810;12.540;2023-10-13T16:39:07;8.20;;;4.78;;
20589;SDS011;10453;50.810;12.540;2023-10-13T16:43:25;13.05;;;5.82;;
20589;SDS011;10453;50.810;12.540;2023-10-13T16:47:44;13.35;;;5.97;;
20589;SDS011;10453;50.810;12.540;2023-10-13T16:52:01;9.70;;;5.20;;
20589;SDS011;10453;50.810;12.540;2023-10-13T16:56:19;18.47;;;11.10;;
20589;SDS011;10453;50.810;12.540;2023-10-13T17:00:39;17.60;;;9.80;;
20589;SDS011;10453;50.810;12.540;2023-10-13T17:05:00;12.48;;;6.07;;
20589;SDS011;10453;50.810;12.540;2023-10-13T17:13:36;9.82;;;5.05;;
20589;SDS011;10453;50.810;12.540;2023-10-13T17:17:59;8.20;;;4.75;;
20589;SDS011;10453;50.810;12.540;2023-10-13T17:22:22;12.25;;;5.20;;
20589;SDS011;10453;50.810;12.540;2023-10-13T17:26:39;10.93;;;4.90;;
20589;SDS011;10453;50.810;12.540;2023-10-13T17:30:57;14.43;;;4.80;;
20589;SDS011;10453;50.810;12.540;2023-10-13T17:35:14;7.90;;;5.00;;
20589;SDS011;10453;50.810;12.540;2023-10-13T17:39:31;9.43;;;5.30;;
20589;SDS011;10453;50.810;12.540;2023-10-13T17:43:49;15.13;;;4.80;;
20589;SDS011;10453;50.810;12.540;2023-10-13T17:48:06;8.10;;;4.90;;
20589;SDS011;10453;50.810;12.540;2023-10-13T17:52:24;12.10;;;4.90;;
20589;SDS011;10453;50.810;12.540;2023-10-13T17:56:43;9.40;;;4.63;;
20589;SDS011;10453;50.810;12.540;2023-10-13T18:01:04;8.77;;;5.27;;
20589;SDS011;10453;50.810;12.540;2023-10-13T18:05:23;12.60;;;4.75;;
20589;SDS011;10453;50.810;12.540;2023-10-13T18:09:41;11.23;;;4.72;;
20589;SDS011;10453;50.810;12.540;2023-10-13T18:13:58;8.55;;;4.55;;
20589;SDS011;10453;50.810;12.540;2023-10-13T18:18:17;9.98;;;4.20;;
20589;SDS011;10453;50.810;12.540;2023-10-13T18:22:34;11.27;;;4.50;;
20589;SDS011;10453;50.810;12.540;2023-10-13T18:26:51;9.43;;;4.40;;
20589;SDS011;10453;50.810;12.540;2023-10-13T18:31:10;9.10;;;4.55;;
20589;SDS011;10453;50.810;12.540;2023-10-13T18:35:29;8.18;;;4.53;;
20589;SDS011;10453;50.810;12.540;2023-10-13T18:39:48;10.35;;;4.30;;
20589;SDS011;10453;50.810;12.540;2023-10-13T18:44:05;13.13;;;4.47;;
20589;SDS011;10453;50.810;12.540;2023-10-13T18:48:26;10.35;;;4.50;;
20589;SDS011;10453;50.810;12.540;2023-10-13T18:52:44;10.10;;;4.37;;
20589;SDS011;10453;50.810;12.540;2023-10-13T18:57:02;9.90;;;3.95;;
20589;SDS011;10453;50.810;12.540;2023-10-13T19:01:22;9.35;;;3.95;;
20589;SDS011;10453;50.810;12.540;2023-10-13T19:05:46;10.77;;;4.53;;
20589;SDS011;10453;50.810;12.540;2023-10-13T19:10:12;15.02;;;4.00;;
20589;SDS011;10453;50.810;12.540;2023-10-13T19:14:35;9.15;;;4.03;;
20589;SDS011;10453;50.810;12.540;2023-10-13T19:18:55;10.48;;;4.32;;
20589;SDS011;10453;50.810;12.540;2023-10-13T19:23:16;10.02;;;4.03;;
20589;SDS011;10453;50.810;12.540;2023-10-13T19:27:34;8.85;;;4.03;;
20589;SDS011;10453;50.810;12.540;2023-10-13T19:31:51;8.30;;;3.75;;
20589;SDS011;10453;50.810;12.540;2023-10-13T19:36:09;8.65;;;3.83;;
20589;SDS011;10453;50.810;12.540;2023-10-13T19:40:34;11.77;;;3.90;;
20589;SDS011;10453;50.810;12.540;2023-10-13T19:44:52;9.35;;;3.83;;
20589;SDS011;10453;50.810;12.540;2023-10-13T19:49:09;7.53;;;4.03;;
20589;SDS011;10453;50.810;12.540;2023-10-13T19:53:29;6.82;;;3.55;;
20589;SDS011;10453;50.810;12.540;2023-10-13T19:57:47;15.38;;;4.07;;
20589;SDS011;10453;50.810;12.540;2023-10-13T20:02:04;13.55;;;4.00;;
20589;SDS011;10453;50.810;12.540;2023-10-13T20:06:23;9.30;;;4.10;;
20589;SDS011;10453;50.810;12.540;2023-10-13T20:10:42;10.07;;;3.90;;
20589;SDS011;10453;50.810;12.540;2023-10-13T20:14:59;12.38;;;3.63;;
20589;SDS011;10453;50.810;12.540;2023-10-13T20:19:17;10.55;;;3.60;;
20589;SDS011;10453;50.810;12.540;2023-10-13T20:23:35;11.27;;;4.03;;
20589;SDS011;10453;50.810;12.540;2023-10-13T20:27:52;11.73;;;3.47;;
20589;SDS011;10453;50.810;12.540;2023-10-13T20:32:10;10.07;;;3.75;;
20589;SDS011;10453;50.810;12.540;2023-10-13T20:36:28;8.85;;;3.78;;
20589;SDS011;10453;50.810;12.540;2023-10-13T20:40:45;8.02;;;3.58;;
20589;SDS011;10453;50.810;12.540;2023-10-13T20:45:10;9.30;;;3.55;;
20589;SDS011;10453;50.810;12.540;2023-10-13T20:49:27;8.48;;;3.40;;
20589;SDS011;10453;50.810;12.540;2023-10-13T20:53:44;9.68;;;3.83;;
20589;SDS011;10453;50.810;12.540;2023-10-13T20:58:04;9.52;;;3.45;;
20589;SDS011;10453;50.810;12.540;2023-10-13T21:02:21;7.80;;;4.03;;
20589;SDS011;10453;50.810;12.540;2023-10-13T21:06:41;10.13;;;4.03;;
20589;SDS011;10453;50.810;12.540;2023-10-13T21:11:06;9.32;;;4.10;;
20589;SDS011;10453;50.810;12.540;2023-10-13T21:15:24;13.35;;;3.80;;
20589;SDS011;10453;50.810;12.540;2023-10-13T21:19:42;6.80;;;3.63;;
20589;SDS011;10453;50.810;12.540;2023-10-13T21:24:00;11.55;;;3.60;;
20589;SDS011;10453;50.810;12.540;2023-10-13T21:28:20;12.65;;;3.97;;
20589;SDS011;10453;50.810;12.540;2023-10-13T21:32:38;12.95;;;3.55;;
20589;SDS011;10453;50.810;12.540;2023-10-13T21:36:56;7.05;;;3.45;;
20589;SDS011;10453;50.810;12.540;2023-10-13T21:41:14;7.53;;;3.90;;
20589;SDS011;10453;50.810;12.540;2023-10-13T21:45:34;9.43;;;4.13;;
20589;SDS011;10453;50.810;12.540;2023-10-13T21:49:53;11.05;;;4.47;;
20589;SDS011;10453;50.810;12.540;2023-10-13T21:54:11;10.57;;;3.58;;
20589;SDS011;10453;50.810;12.540;2023-10-13T21:58:29;15.77;;;4.40;;
20589;SDS011;10453;50.810;12.540;2023-10-13T22:02:47;12.55;;;4.03;;
20589;SDS011;10453;50.810;12.540;2023-10-13T22:07:06;11.13;;;3.92;;
20589;SDS011;10453;50.810;12.540;2023-10-13T22:11:24;6.47;;;3.28;;
20589;SDS011;10453;50.810;12.540;2023-10-13T22:15:41;9.75;;;3.22;;
20589;SDS011;10453;50.810;12.540;2023-10-13T22:19:59;7.28;;;3.60;;
20589;SDS011;10453;50.810;12.540;2023-10-13T22:24:18;9.20;;;3.58;;
20589;SDS011;10453;50.810;12.540;2023-10-13T22:28:47;7.47;;;3.08;;
20589;SDS011;10453;50.810;12.540;2023-10-13T22:33:09;8.35;;;3.78;;
20589;SDS011;10453;50.810;12.540;2023-10-13T22:37:26;10.80;;;3.72;;
20589;SDS011;10453;50.810;12.540;2023-10-13T22:41:43;11.32;;;3.65;;
20589;SDS011;10453;50.810;12.540;2023-10-13T22:46:02;10.05;;;3.75;;
20589;SDS011;10453;50.810;12.540;2023-10-13T22:50:20;12.13;;;4.50;;
20589;SDS011;10453;50.810;12.540;2023-10-13T22:54:44;8.93;;;3.75;;
20589;SDS011;10453;50.810;12.540;2023-10-13T22:59:01;8.02;;;3.63;;
20589;SDS011;10453;50.810;12.540;2023-10-13T23:03:22;11.68;;;3.63;;
20589;SDS011;10453;50.810;12.540;2023-10-13T23:07:40;11.40;;;4.20;;
20589;SDS011;10453;50.810;12.540;2023-10-13T23:11:58;11.60;;;3.73;;
20589;SDS011;10453;50.810;12.540;2023-10-13T23:16:24;9.68;;;3.60;;
20589;SDS011;10453;50.810;12.540;2023-10-13T23:20:43;9.45;;;3.88;;
20589;SDS011;10453;50.810;12.540;2023-10-13T23:25:00;8.20;;;3.65;;
20589;SDS011;10453;50.810;12.540;2023-10-13T23:29:18;10.73;;;3.72;;
20589;SDS011;10453;50.810;12.540;2023-10-13T23:33:35;8.20;;;3.65;;
20589;SDS011;10453;50.810;12.540;2023-10-13T23:37:53;7.18;;;3.60;;
20589;SDS011;10453;50.810;12.540;2023-10-13T23:42:11;7.88;;;3.45;;
20589;SDS011;10453;50.810;12.540;2023-10-13T23:46:39;10.25;;;3.47;;
20589;SDS011;10453;50.810;12.540;2023-10-13T23:51:03;8.38;;;3.78;;
20589;SDS011;10453;50.810;12.540;2023-10-13T23:55:22;8.63;;;3.40;;
20589;SDS011;10453;50.810;12.540;2023-10-13T23:59:39;9.45;;;3.80;;
